This is the latest recevied weather packets stored in our database for station/object TVARMINN. If no packets are shown the sender has not sent any weather packets the latest 10 day(s).
| Time | Temp. | Humidity | Pressure | Rain* | Wind** | Luminosity | Snow |
|---|---|---|---|---|---|---|---|
| 1777558017 | 12.78° C | 58% | 1021.5 hPa | 0 mm | - | - | - |
| 1777556817 | 13.33° C | 57% | 1021.4 hPa | 0 mm | - | - | - |
| 1777555617 | 13.33° C | 57% | 1021.5 hPa | 0 mm | - | - | - |
| 1777554417 | 12.78° C | 60% | 1021.6 hPa | 0 mm | - | - | - |
| 1777553217 | 12.22° C | 60% | 1021.7 hPa | 0 mm | - | - | - |
| 1777552017 | 12.78° C | 60% | 1021.9 hPa | 0 mm | - | - | - |
| 1777550817 | 12.78° C | 60% | 1021.8 hPa | 0 mm | - | - | - |
| 1777549617 | 12.78° C | 60% | 1021.8 hPa | 0 mm | - | - | - |
| 1777548417 | 12.78° C | 61% | 1021.8 hPa | 0 mm | - | - | - |
| 1777547217 | 12.78° C | 62% | 1022.1 hPa | 0 mm | - | - | - |
| 1777546016 | 12.22° C | 63% | 1022.2 hPa | 0 mm | - | - | - |
| 1777544817 | 12.22° C | 65% | 1022.3 hPa | 0 mm | - | - | - |
| 1777543617 | 11.11° C | 69% | 1022.3 hPa | 0 mm | - | - | - |
| 1777542417 | 11.11° C | 69% | 1022.2 hPa | 0 mm | - | - | - |
| 1777541217 | 10.56° C | 72% | 1022.3 hPa | 0 mm | - | - | - |
| 1777540016 | 9.44° C | 75% | 1022.4 hPa | 0 mm | - | - | - |
| 1777538816 | 9.44° C | 75% | 1022.4 hPa | 0 mm | - | - | - |
| 1777537616 | 8.89° C | 78% | 1022.4 hPa | 0 mm | - | - | - |
| 1777536417 | 8.89° C | 77% | 1022.5 hPa | 0 mm | - | - | - |
| 1777535217 | 8.33° C | 77% | 1022.5 hPa | 0 mm | - | - | - |
| 1777534016 | 7.78° C | 78% | 1022.5 hPa | 0 mm | - | - | - |
| 1777532816 | 8.33° C | 79% | 1022.5 hPa | 0 mm | - | - | - |
| 1777531616 | 7.78° C | 80% | 1022.5 hPa | 0 mm | - | - | - |
| 1777530416 | 7.22° C | 84% | 1022.5 hPa | 0 mm | - | - | - |
| 1777529216 | 6.11° C | 87% | 1022.7 hPa | 0 mm | - | - | - |
* Rain latest hour (hover to see other rain measurements)
** Current wind speed in m/s (hover to see current wind gust speed)